createdAt,value
2022-09-29T00:01:16.085Z,97524.22
2022-09-29T00:03:44.463Z,97528.77
2022-09-29T00:06:15.735Z,97520.27
2022-09-29T00:08:44.277Z,97525.70
2022-09-29T00:11:17.011Z,97528.90
2022-09-29T00:13:47.174Z,97527.98
2022-09-29T00:16:18.376Z,97531.08
2022-09-29T00:18:46.760Z,97535.05
2022-09-29T00:21:21.821Z,97538.27
2022-09-29T00:23:52.710Z,97543.20
2022-09-29T00:26:23.473Z,97551.00
2022-09-29T00:28:57.234Z,97553.95
2022-09-29T00:31:28.796Z,97557.62
2022-09-29T00:33:57.622Z,97550.00
2022-09-29T00:36:30.417Z,97557.80
2022-09-29T00:38:59.275Z,97562.29
2022-09-29T00:41:34.717Z,97566.63
2022-09-29T00:44:07.477Z,97561.91
2022-09-29T00:46:56.603Z,97553.53
2022-09-29T00:49:43.483Z,97552.96
2022-09-29T00:52:21.443Z,97562.16
2022-09-29T00:54:55.454Z,97562.35
2022-09-29T00:57:31.752Z,97558.14
2022-09-29T01:00:08.312Z,97557.84
2022-09-29T01:06:13.147Z,97564.59
2022-09-29T01:08:47.458Z,97564.66
2022-09-29T01:11:16.927Z,97571.44
2022-09-29T01:13:45.286Z,97569.73
2022-09-29T01:16:13.374Z,97569.23
2022-09-29T01:18:43.584Z,97577.79
2022-09-29T01:21:30.116Z,97581.36
2022-09-29T01:24:16.354Z,97578.34
2022-09-29T01:27:08.498Z,97581.02
2022-09-29T01:29:56.647Z,97583.65
2022-09-29T01:32:46.150Z,97580.89
2022-09-29T01:35:43.653Z,97580.73
2022-09-29T01:38:43.719Z,97576.33
2022-09-29T01:41:27.878Z,97583.14
2022-09-29T01:44:04.960Z,97591.55
2022-09-29T01:47:08.777Z,97592.57
2022-09-29T01:49:43.479Z,97597.14
2022-09-29T01:52:15.812Z,97608.56
2022-09-29T01:54:59.584Z,97611.55
2022-09-29T01:57:31.974Z,97611.79
2022-09-29T02:00:09.891Z,97605.20
2022-09-29T02:02:46.945Z,97603.66
2022-09-29T02:05:38.163Z,97607.52
2022-09-29T02:08:18.979Z,97616.03
2022-09-29T02:10:54.104Z,97620.27
2022-09-29T02:13:24.855Z,97623.24
2022-09-29T02:15:55.957Z,97626.31
2022-09-29T02:18:30.909Z,97620.74
2022-09-29T02:20:59.085Z,97622.88
2022-09-29T02:23:27.362Z,97628.41
2022-09-29T02:25:58.583Z,97629.03
2022-09-29T02:28:27.273Z,97631.61
2022-09-29T02:30:55.490Z,97636.35
2022-09-29T02:33:25.842Z,97638.67
2022-09-29T02:36:08.083Z,97634.12
2022-09-29T02:38:47.509Z,97636.33
2022-09-29T02:41:40.152Z,97632.45
2022-09-29T02:44:29.831Z,97629.96
2022-09-29T02:47:15.227Z,97635.09
2022-09-29T02:50:07.032Z,97641.28
2022-09-29T02:53:00.688Z,97641.38
2022-09-29T02:55:43.619Z,97640.04
2022-09-29T02:58:21.442Z,97633.16
2022-09-29T03:00:49.929Z,97636.79
2022-09-29T03:03:18.330Z,97639.61
2022-09-29T03:05:46.604Z,97644.98
2022-09-29T03:08:14.656Z,97641.44
2022-09-29T03:10:42.861Z,97636.96
2022-09-29T03:13:11.000Z,97639.18
2022-09-29T03:15:39.107Z,97637.34
2022-09-29T03:18:10.281Z,97635.74
2022-09-29T03:20:38.664Z,97634.80
2022-09-29T03:23:06.796Z,97630.88
2022-09-29T03:25:35.222Z,97637.14
2022-09-29T03:28:03.350Z,97642.16
2022-09-29T03:30:31.620Z,97641.78
2022-09-29T03:32:59.852Z,97642.11
2022-09-29T03:35:28.582Z,97643.66
2022-09-29T03:38:00.807Z,97643.69
2022-09-29T03:40:29.366Z,97646.48
2022-09-29T03:42:57.496Z,97650.28
2022-09-29T03:45:25.715Z,97650.53
2022-09-29T03:47:53.877Z,97652.83
2022-09-29T03:50:22.035Z,97646.65
2022-09-29T03:52:50.098Z,97639.58
2022-09-29T03:55:18.171Z,97643.59
2022-09-29T03:57:46.358Z,97638.91
2022-09-29T04:00:14.802Z,97642.80
2022-09-29T04:02:43.006Z,97640.91
2022-09-29T04:05:11.080Z,97643.70
2022-09-29T04:07:39.413Z,97642.82
2022-09-29T04:10:07.835Z,97640.51
2022-09-29T04:12:36.292Z,97644.16
2022-09-29T04:15:04.932Z,97644.70
2022-09-29T04:17:33.283Z,97651.27
2022-09-29T04:20:01.679Z,97656.88
2022-09-29T04:22:29.837Z,97656.10
2022-09-29T04:24:58.431Z,97650.34
2022-09-29T04:27:26.608Z,97653.46
2022-09-29T04:29:54.756Z,97660.25
2022-09-29T04:32:24.748Z,97666.30
2022-09-29T04:34:52.842Z,97673.84
2022-09-29T04:37:24.660Z,97679.55
2022-09-29T04:39:54.267Z,97682.97
2022-09-29T04:42:22.383Z,97688.86
2022-09-29T04:44:50.599Z,97699.16
2022-09-29T04:47:18.892Z,97702.55
2022-09-29T04:49:47.163Z,97703.57
2022-09-29T04:52:15.435Z,97707.48
2022-09-29T04:54:43.655Z,97704.05
2022-09-29T04:57:12.022Z,97705.30
2022-09-29T04:59:40.115Z,97706.73
2022-09-29T05:02:08.457Z,97711.20
2022-09-29T05:04:36.600Z,97709.96
2022-09-29T05:07:04.825Z,97709.05
2022-09-29T05:09:34.152Z,97706.17
2022-09-29T05:12:02.701Z,97709.50
2022-09-29T05:14:31.143Z,97710.54
2022-09-29T05:16:59.461Z,97713.56
2022-09-29T05:19:27.713Z,97713.56
2022-09-29T05:21:56.740Z,97723.84
2022-09-29T05:24:25.799Z,97726.20
2022-09-29T05:26:58.323Z,97726.38
2022-09-29T05:29:27.178Z,97718.64
2022-09-29T05:31:55.305Z,97728.31
2022-09-29T05:34:23.377Z,97726.58
2022-09-29T05:36:51.700Z,97725.91
2022-09-29T05:39:21.189Z,97728.16
2022-09-29T05:41:49.693Z,97726.59
2022-09-29T05:44:18.210Z,97731.89
2022-09-29T05:46:46.665Z,97729.50
2022-09-29T05:49:14.784Z,97731.56
2022-09-29T05:51:43.296Z,97732.92
2022-09-29T05:54:11.418Z,97729.89
2022-09-29T05:56:44.417Z,97732.95
2022-09-29T05:59:13.725Z,97735.77
2022-09-29T06:01:42.376Z,97736.43
2022-09-29T06:04:11.011Z,97739.34
2022-09-29T06:06:40.563Z,97745.00
2022-09-29T06:09:09.674Z,97746.62
2022-09-29T06:11:37.835Z,97749.21
2022-09-29T06:14:06.341Z,97750.73
2022-09-29T06:16:34.817Z,97745.11
2022-09-29T06:19:04.133Z,97749.58
2022-09-29T06:21:35.477Z,97747.91
2022-09-29T06:24:04.512Z,97750.70
2022-09-29T06:26:32.744Z,97757.94
2022-09-29T06:29:01.850Z,97761.69
2022-09-29T06:31:31.270Z,97762.54
2022-09-29T06:34:02.428Z,97760.61
2022-09-29T06:37:09.363Z,97755.74
2022-09-29T06:39:38.138Z,97748.33
2022-09-29T06:42:06.887Z,97749.54
2022-09-29T06:44:35.867Z,97756.46
2022-09-29T06:47:04.144Z,97758.27
2022-09-29T06:49:32.405Z,97762.05
2022-09-29T06:52:05.019Z,97764.86
2022-09-29T06:54:40.541Z,97764.25
2022-09-29T06:57:10.068Z,97769.59
2022-09-29T06:59:38.182Z,97765.11
2022-09-29T07:02:06.750Z,97763.76
2022-09-29T07:04:34.909Z,97763.96
2022-09-29T07:07:03.154Z,97771.96
2022-09-29T07:09:32.143Z,97772.14
2022-09-29T07:12:00.370Z,97774.88
2022-09-29T07:14:28.409Z,97773.79
2022-09-29T07:16:59.068Z,97776.90
2022-09-29T07:19:27.134Z,97783.13
2022-09-29T07:21:55.248Z,97784.67
2022-09-29T07:24:25.389Z,97787.40
2022-09-29T07:26:53.527Z,97789.70
2022-09-29T07:29:21.681Z,97793.95
2022-09-29T07:31:53.069Z,97794.64
2022-09-29T07:34:23.447Z,97800.34
2022-09-29T07:36:52.766Z,97801.91
2022-09-29T07:39:22.641Z,97804.92
2022-09-29T07:41:52.057Z,97803.48
2022-09-29T07:44:20.861Z,97814.61
2022-09-29T07:46:50.118Z,97818.47
2022-09-29T07:49:18.914Z,97815.17
2022-09-29T07:51:48.086Z,97819.61
2022-09-29T07:54:16.633Z,97827.64
2022-09-29T07:56:44.665Z,97822.39
2022-09-29T07:59:13.247Z,97823.31
2022-09-29T08:01:41.569Z,97824.99
2022-09-29T08:04:09.743Z,97829.55
2022-09-29T08:06:38.325Z,97830.51
2022-09-29T08:09:07.013Z,97832.96
2022-09-29T08:11:39.230Z,97834.72
2022-09-29T08:14:09.983Z,97833.61
2022-09-29T08:16:39.245Z,97836.25
2022-09-29T08:19:07.569Z,97836.01
2022-09-29T08:21:37.421Z,97830.92
2022-09-29T08:24:06.926Z,97829.19
2022-09-29T08:26:43.490Z,97826.55
2022-09-29T08:29:17.194Z,97831.15
2022-09-29T08:31:46.624Z,97828.61
2022-09-29T08:34:16.226Z,97834.23
2022-09-29T08:36:45.252Z,97833.09
2022-09-29T08:39:15.659Z,97837.02
2022-09-29T08:41:51.256Z,97842.15
2022-09-29T08:44:37.955Z,97843.90
2022-09-29T08:47:41.616Z,97846.02
2022-09-29T08:50:22.773Z,97845.77
2022-09-29T08:52:58.075Z,97844.48
2022-09-29T08:55:47.096Z,97847.37
2022-09-29T08:58:17.072Z,97842.95
2022-09-29T09:00:51.475Z,97846.67
2022-09-29T09:03:50.798Z,97854.40
2022-09-29T09:06:46.225Z,97854.47
2022-09-29T09:09:56.560Z,97853.05
2022-09-29T09:12:56.669Z,97850.74
2022-09-29T09:15:58.660Z,97853.33
2022-09-29T09:18:45.790Z,97856.08
2022-09-29T09:21:44.704Z,97854.89
2022-09-29T09:24:48.422Z,97854.05
2022-09-29T09:27:23.835Z,97859.61
2022-09-29T09:30:02.694Z,97862.36
2022-09-29T09:32:34.209Z,97867.38
2022-09-29T09:35:24.371Z,97868.18
2022-09-29T09:37:58.198Z,97868.89
2022-09-29T09:40:51.388Z,97872.39
2022-09-29T09:43:25.237Z,97873.40
2022-09-29T09:46:36.039Z,97874.32
2022-09-29T09:49:05.334Z,97870.69
2022-09-29T09:52:04.962Z,97872.02
2022-09-29T09:54:39.098Z,97876.45
2022-09-29T09:57:12.942Z,97874.30
2022-09-29T10:00:00.295Z,97876.64
2022-09-29T10:02:30.968Z,97875.56
2022-09-29T10:04:59.688Z,97885.62
2022-09-29T10:07:30.581Z,97884.23
2022-09-29T10:10:03.691Z,97888.73
2022-09-29T10:12:32.237Z,97887.44
2022-09-29T10:15:12.593Z,97885.27
2022-09-29T10:17:47.031Z,97887.19
2022-09-29T10:20:32.050Z,97889.35
2022-09-29T10:23:32.359Z,97891.84
2022-09-29T10:26:15.191Z,97892.29
2022-09-29T10:28:49.394Z,97893.16
2022-09-29T10:31:21.290Z,97896.80
2022-09-29T10:33:53.078Z,97899.38
2022-09-29T10:36:23.795Z,97899.72
2022-09-29T10:38:54.056Z,97900.63
2022-09-29T10:41:22.370Z,97902.66
2022-09-29T10:43:53.018Z,97903.17
2022-09-29T10:46:41.532Z,97901.91
2022-09-29T11:06:17.398Z,97903.73
2022-09-29T11:09:02.012Z,97907.77
2022-09-29T11:11:57.949Z,97905.59
2022-09-29T11:14:37.576Z,97908.21
2022-09-29T11:17:29.940Z,97909.62
2022-09-29T11:20:04.150Z,97910.48
2022-09-29T11:22:50.811Z,97915.22
2022-09-29T11:25:27.280Z,97912.98
2022-09-29T11:28:24.525Z,97917.08
2022-09-29T11:31:09.353Z,97920.34
2022-09-29T11:33:40.140Z,97919.70
2022-09-29T11:36:32.302Z,97917.45
2022-09-29T11:39:28.266Z,97917.63
2022-09-29T11:42:18.205Z,97914.06
2022-09-29T11:44:52.081Z,97912.42
2022-09-29T11:47:21.103Z,97914.02
2022-09-29T11:50:07.737Z,97912.30
2022-09-29T11:52:54.205Z,97913.67
2022-09-29T11:55:33.464Z,97918.42
2022-09-29T11:58:20.504Z,97916.56
2022-09-29T12:01:05.120Z,97918.13
2022-09-29T12:04:11.512Z,97920.23
2022-09-29T12:07:01.587Z,97917.29
2022-09-29T12:09:35.378Z,97917.85
2022-09-29T12:12:23.652Z,97920.02
2022-09-29T12:14:58.836Z,97919.13
2022-09-29T12:17:31.348Z,97920.21
2022-09-29T12:20:06.345Z,97923.11
2022-09-29T12:22:36.963Z,97927.23
2022-09-29T12:25:12.460Z,97924.52
2022-09-29T12:27:42.889Z,97929.23
2022-09-29T12:30:26.313Z,97925.27
2022-09-29T12:33:14.634Z,97930.94
2022-09-29T12:35:50.885Z,97927.70
2022-09-29T12:38:28.014Z,97927.17
2022-09-29T12:41:25.662Z,97931.25
2022-09-29T12:44:11.932Z,97927.73
2022-09-29T12:46:48.916Z,97928.77
2022-09-29T12:49:28.087Z,97929.05
2022-09-29T12:51:57.580Z,97932.56
2022-09-29T12:54:37.146Z,97938.04
2022-09-29T12:57:16.109Z,97941.61
2022-09-29T12:59:47.342Z,97941.27
2022-09-29T13:02:45.771Z,97943.11
2022-09-29T13:05:33.606Z,97946.62
2022-09-29T13:08:08.108Z,97951.17
2022-09-29T13:11:14.760Z,97951.44
2022-09-29T13:14:04.884Z,97956.80
2022-09-29T13:16:56.983Z,97954.27
2022-09-29T13:19:59.666Z,97952.31
2022-09-29T13:23:02.604Z,97946.69
2022-09-29T13:25:51.723Z,97946.86
2022-09-29T13:28:34.076Z,97948.47
2022-09-29T13:31:07.556Z,97946.26
2022-09-29T13:33:36.895Z,97947.19
2022-09-29T13:36:05.623Z,97948.54
2022-09-29T13:38:37.623Z,97948.09
2022-09-29T13:41:23.870Z,97946.83
2022-09-29T13:43:52.090Z,97950.75
2022-09-29T13:46:32.380Z,97953.53
2022-09-29T13:49:09.633Z,97956.36
2022-09-29T13:52:16.688Z,97963.11
2022-09-29T13:54:45.147Z,97965.05
2022-09-29T13:57:13.546Z,97966.88
2022-09-29T14:00:03.580Z,97968.80
2022-09-29T14:02:41.955Z,97970.98
2022-09-29T14:05:25.205Z,97967.36
2022-09-29T14:07:57.523Z,97969.62
2022-09-29T14:10:43.635Z,97969.11
2022-09-29T14:13:27.499Z,97972.98
2022-09-29T14:16:15.799Z,97973.56
2022-09-29T14:18:46.738Z,97977.17
2022-09-29T14:21:49.972Z,97978.72
2022-09-29T14:24:42.296Z,97979.27
2022-09-29T14:27:22.122Z,97981.23
2022-09-29T14:30:18.045Z,97980.65
2022-09-29T14:32:48.639Z,97980.38
2022-09-29T14:35:22.014Z,97981.44
2022-09-29T14:37:59.456Z,97982.92
2022-09-29T14:40:30.895Z,97983.27
2022-09-29T14:43:34.502Z,97984.79
2022-09-29T14:46:40.246Z,97987.28
2022-09-29T14:49:45.726Z,97990.05
2022-09-29T14:52:23.266Z,97991.38
2022-09-29T14:57:42.762Z,97992.34
2022-09-29T15:00:20.640Z,97995.46
2022-09-29T15:02:59.778Z,97998.83
2022-09-29T15:05:35.393Z,97993.35
2022-09-29T15:08:23.505Z,97996.97
2022-09-29T15:10:51.993Z,98003.33
2022-09-29T15:13:31.809Z,98012.71
2022-09-29T15:16:13.180Z,98015.24
2022-09-29T15:18:53.337Z,98020.83
2022-09-29T15:21:32.548Z,98026.27
2022-09-29T15:24:04.470Z,98028.86
2022-09-29T15:26:34.354Z,98027.23
2022-09-29T15:29:06.769Z,98035.90
2022-09-29T15:31:36.131Z,98031.89
2022-09-29T15:34:04.860Z,98028.26
2022-09-29T15:36:38.452Z,98031.25
2022-09-29T15:39:13.818Z,98038.23
2022-09-29T15:41:45.176Z,98042.95
2022-09-29T15:44:22.419Z,98048.70
2022-09-29T15:46:52.770Z,98053.56
2022-09-29T15:49:25.954Z,98059.45
2022-09-29T15:52:03.179Z,98058.98
2022-09-29T15:54:35.106Z,98059.58
2022-09-29T15:57:22.772Z,98059.71
2022-09-29T15:59:54.339Z,98064.95
2022-09-29T16:02:30.641Z,98064.65
2022-09-29T16:05:03.115Z,98062.02
2022-09-29T16:07:35.680Z,98062.50
2022-09-29T16:10:21.296Z,98064.13
2022-09-29T16:13:02.387Z,98061.92
2022-09-29T16:15:49.055Z,98059.94
2022-09-29T16:18:23.773Z,98056.58
2022-09-29T16:20:59.103Z,98055.73
2022-09-29T16:23:50.124Z,98058.91
2022-09-29T16:26:32.910Z,98058.52
2022-09-29T16:29:09.930Z,98061.91
2022-09-29T16:31:40.350Z,98065.96
2022-09-29T16:34:30.951Z,98068.17
2022-09-29T16:37:00.179Z,98068.39
2022-09-29T16:39:39.821Z,98073.42
2022-09-29T16:42:19.959Z,98081.52
2022-09-29T16:44:53.467Z,98082.95
2022-09-29T16:47:33.019Z,98088.02
2022-09-29T16:50:14.344Z,98089.90
2022-09-29T16:52:50.756Z,98093.30
2022-09-29T16:55:28.291Z,98100.83
2022-09-29T16:58:13.174Z,98102.76
2022-09-29T17:00:41.953Z,98106.44
2022-09-29T17:03:10.387Z,98110.05
2022-09-29T17:05:43.894Z,98114.96
2022-09-29T17:08:24.145Z,98120.84
2022-09-29T17:10:54.424Z,98124.03
2022-09-29T17:13:23.870Z,98122.03
2022-09-29T17:15:52.899Z,98119.58
2022-09-29T17:18:25.199Z,98124.71
2022-09-29T17:20:53.551Z,98122.84
2022-09-29T17:23:21.812Z,98122.23
2022-09-29T17:25:50.200Z,98125.14
2022-09-29T17:28:24.824Z,98123.30
2022-09-29T17:30:55.769Z,98128.64
2022-09-29T17:33:23.903Z,98132.52
2022-09-29T17:35:55.881Z,98136.92
2022-09-29T17:38:25.886Z,98139.94
2022-09-29T17:41:03.973Z,98148.45
2022-09-29T17:43:32.777Z,98152.77
2022-09-29T17:46:01.844Z,98156.46
2022-09-29T17:48:32.926Z,98151.56
2022-09-29T17:51:04.299Z,98150.27
2022-09-29T17:53:34.223Z,98152.91
2022-09-29T17:56:03.424Z,98163.52
2022-09-29T17:58:31.675Z,98164.27
2022-09-29T18:01:00.256Z,98163.44
2022-09-29T18:03:29.509Z,98162.13
2022-09-29T18:05:58.916Z,98165.40
2022-09-29T18:08:29.612Z,98169.19
2022-09-29T18:11:00.481Z,98168.30
2022-09-29T18:13:31.775Z,98170.02
2022-09-29T18:16:01.810Z,98170.90
2022-09-29T18:18:30.157Z,98171.23
2022-09-29T18:20:58.429Z,98172.17
2022-09-29T18:23:26.881Z,98172.88
2022-09-29T18:25:55.708Z,98171.33
2022-09-29T18:28:24.138Z,98177.76
2022-09-29T18:30:58.217Z,98179.51
2022-09-29T18:33:28.415Z,98177.77
2022-09-29T18:35:56.938Z,98177.55
2022-09-29T18:38:25.312Z,98178.89
2022-09-29T18:40:55.524Z,98180.77
2022-09-29T18:43:25.984Z,98189.14
2022-09-29T18:45:58.367Z,98192.87
2022-09-29T18:48:26.596Z,98192.74
2022-09-29T18:50:56.839Z,98194.24
2022-09-29T18:53:25.528Z,98192.26
2022-09-29T18:55:57.628Z,98190.40
2022-09-29T18:58:25.926Z,98187.95
2022-09-29T19:00:56.028Z,98190.16
2022-09-29T19:03:27.236Z,98191.80
2022-09-29T19:05:56.664Z,98200.38
2022-09-29T19:08:25.240Z,98207.92
2022-09-29T19:10:57.876Z,98207.59
2022-09-29T19:13:26.176Z,98212.63
2022-09-29T19:15:59.443Z,98211.92
2022-09-29T19:18:28.404Z,98210.88
2022-09-29T19:20:59.713Z,98217.59
2022-09-29T19:23:28.137Z,98211.98
2022-09-29T19:25:58.748Z,98210.11
2022-09-29T19:28:27.572Z,98214.14
2022-09-29T19:31:04.781Z,98218.02
2022-09-29T19:33:33.576Z,98220.03
2022-09-29T19:36:05.557Z,98220.93
2022-09-29T19:38:35.149Z,98229.14
2022-09-29T19:41:04.575Z,98223.04
2022-09-29T19:43:32.771Z,98219.75
2022-09-29T19:46:07.678Z,98218.73
2022-09-29T19:48:43.933Z,98218.38
2022-09-29T19:51:34.359Z,98216.43
2022-09-29T19:54:10.746Z,98219.71
2022-09-29T19:56:44.426Z,98224.02
2022-09-29T19:59:14.430Z,98229.40
2022-09-29T20:01:45.536Z,98235.02
2022-09-29T20:04:20.018Z,98238.80
2022-09-29T20:06:48.199Z,98235.89
2022-09-29T20:09:18.357Z,98240.64
2022-09-29T20:11:47.208Z,98235.81
2022-09-29T20:14:17.239Z,98239.73
2022-09-29T20:16:46.320Z,98238.48
2022-09-29T20:19:16.406Z,98241.15
2022-09-29T20:21:46.972Z,98239.95
2022-09-29T20:24:17.424Z,98236.27
2022-09-29T20:26:47.926Z,98240.16
2022-09-29T20:29:19.226Z,98245.00
2022-09-29T20:31:48.210Z,98245.71
2022-09-29T20:34:18.693Z,98249.77
2022-09-29T20:36:50.871Z,98248.83
2022-09-29T20:39:22.194Z,98251.25
2022-09-29T20:41:50.733Z,98249.56
2022-09-29T20:44:20.085Z,98250.80
2022-09-29T20:46:48.562Z,98252.54
2022-09-29T20:49:18.071Z,98257.35
2022-09-29T20:51:46.330Z,98262.17
2022-09-29T20:54:14.573Z,98265.66
2022-09-29T20:56:42.957Z,98273.52
2022-09-29T20:59:16.374Z,98280.04
2022-09-29T21:01:45.778Z,98283.34
2022-09-29T21:04:18.091Z,98288.00
2022-09-29T21:06:49.590Z,98292.08
2022-09-29T21:09:22.093Z,98292.48
2022-09-29T21:11:52.841Z,98298.46
2022-09-29T21:14:24.434Z,98300.27
2022-09-29T21:16:53.404Z,98310.09
2022-09-29T21:19:26.760Z,98308.00
2022-09-29T21:21:56.342Z,98305.71
2022-09-29T21:24:25.019Z,98305.55
2022-09-29T21:26:53.733Z,98302.43
2022-09-29T21:29:22.319Z,98301.89
2022-09-29T21:31:51.108Z,98298.44
2022-09-29T21:34:20.147Z,98302.83
2022-09-29T21:36:48.948Z,98308.13
2022-09-29T21:39:17.244Z,98315.64
2022-09-29T21:41:46.120Z,98326.54
2022-09-29T21:44:18.044Z,98328.02
2022-09-29T21:46:46.356Z,98332.46
2022-09-29T21:49:16.576Z,98331.94
2022-09-29T21:51:50.075Z,98339.15
2022-09-29T21:54:23.587Z,98336.89
2022-09-29T21:56:53.035Z,98342.77
2022-09-29T21:59:22.892Z,98351.00
2022-09-29T22:01:52.467Z,98345.52
2022-09-29T22:04:21.432Z,98350.20
2022-09-29T22:06:50.034Z,98350.80
2022-09-29T22:09:20.690Z,98348.52
2022-09-29T22:11:50.489Z,98350.27
2022-09-29T22:14:20.079Z,98347.89
2022-09-29T22:16:48.380Z,98348.27
2022-09-29T22:19:24.872Z,98346.75
2022-09-29T22:22:01.130Z,98347.39
2022-09-29T22:24:29.673Z,98345.88
2022-09-29T22:26:57.814Z,98353.08
2022-09-29T22:29:26.088Z,98352.50
2022-09-29T22:31:54.553Z,98356.14
2022-09-29T22:34:22.722Z,98351.72
2022-09-29T22:36:51.371Z,98359.90
2022-09-29T22:39:19.832Z,98368.64
2022-09-29T22:41:50.978Z,98372.98
2022-09-29T22:44:19.426Z,98375.15
2022-09-29T22:46:47.979Z,98377.83
2022-09-29T22:49:16.249Z,98377.20
2022-09-29T22:51:44.414Z,98381.08
2022-09-29T22:54:14.320Z,98382.08
2022-09-29T22:56:43.759Z,98377.69
2022-09-29T22:59:13.294Z,98374.11
2022-09-29T23:01:42.358Z,98370.66
2022-09-29T23:04:10.739Z,98369.73
2022-09-29T23:06:39.390Z,98365.33
2022-09-29T23:09:10.885Z,98369.61
2022-09-29T23:11:38.975Z,98369.33
2022-09-29T23:14:07.215Z,98364.91
2022-09-29T23:16:35.715Z,98357.88
2022-09-29T23:19:04.321Z,98361.81
2022-09-29T23:21:34.275Z,98366.21
2022-09-29T23:24:02.661Z,98363.02
2022-09-29T23:26:31.400Z,98362.73
2022-09-29T23:29:00.844Z,98361.06
2022-09-29T23:31:29.443Z,98361.18
2022-09-29T23:33:59.223Z,98361.84
2022-09-29T23:36:29.234Z,98365.20
2022-09-29T23:39:09.971Z,98362.09
2022-09-29T23:41:46.503Z,98357.29
2022-09-29T23:44:18.595Z,98352.34
2022-09-29T23:46:47.385Z,98355.52
2022-09-29T23:49:18.801Z,98361.64
2022-09-29T23:51:50.083Z,98365.00
2022-09-29T23:54:21.151Z,98368.14
2022-09-29T23:56:51.328Z,98366.52
2022-09-29T23:59:20.388Z,98372.36
